createdAt,value
2019-05-23T00:02:22.219Z,73.49
2019-05-23T00:04:55.553Z,73.59
2019-05-23T00:07:25.529Z,74.86
2019-05-23T00:09:52.921Z,74.29
2019-05-23T00:12:40.471Z,74.61
2019-05-23T00:15:14.440Z,75.07
2019-05-23T00:17:42.898Z,74.71
2019-05-23T00:20:11.046Z,74.81
2019-05-23T00:22:38.905Z,73.50
2019-05-23T00:25:07.463Z,74.14
2019-05-23T00:27:36.353Z,75.66
2019-05-23T00:30:04.981Z,75.84
2019-05-23T00:32:46.271Z,76.28
2019-05-23T00:35:14.416Z,75.32
2019-05-23T00:37:43.012Z,75.62
2019-05-23T00:40:12.507Z,77.18
2019-05-23T00:42:40.430Z,76.55
2019-05-23T00:45:09.866Z,75.69
2019-05-23T00:47:38.893Z,75.19
2019-05-23T00:50:08.036Z,75.25
2019-05-23T00:52:37.799Z,76.20
2019-05-23T00:55:05.718Z,76.36
2019-05-23T00:57:34.004Z,76.86
2019-05-23T01:00:01.882Z,76.79
2019-05-23T01:02:31.386Z,77.53
2019-05-23T01:04:58.670Z,78.11
2019-05-23T01:07:26.468Z,78.08
2019-05-23T01:09:53.791Z,78.06
2019-05-23T01:12:23.935Z,78.23
2019-05-23T01:14:51.503Z,78.36
2019-05-23T01:17:20.254Z,78.49
2019-05-23T01:19:52.342Z,78.62
2019-05-23T01:22:20.934Z,79.27
2019-05-23T01:24:52.642Z,79.29
2019-05-23T01:27:20.276Z,78.93
2019-05-23T01:29:50.232Z,78.87
2019-05-23T01:32:41.790Z,78.89
2019-05-23T01:35:10.561Z,80.38
2019-05-23T01:37:38.851Z,80.13
2019-05-23T01:40:08.586Z,79.80
2019-05-23T01:42:36.252Z,80.01
2019-05-23T01:45:05.652Z,80.06
2019-05-23T01:47:34.042Z,80.09
2019-05-23T01:50:01.781Z,80.24
2019-05-23T01:52:29.410Z,80.08
2019-05-23T01:54:57.138Z,80.08
2019-05-23T01:57:24.828Z,80.03
2019-05-23T02:00:08.086Z,80.33
2019-05-23T02:02:22.376Z,80.56
2019-05-23T02:04:50.387Z,80.89
2019-05-23T02:07:19.884Z,80.94
2019-05-23T02:09:47.781Z,81.08
2019-05-23T02:12:16.254Z,81.14
2019-05-23T02:14:45.285Z,82.26
2019-05-23T02:17:13.270Z,82.39
2019-05-23T02:19:40.960Z,83.57
2019-05-23T02:22:11.750Z,82.61
2019-05-23T02:24:39.513Z,81.85
2019-05-23T02:27:09.419Z,82.64
2019-05-23T02:29:37.519Z,83.71
2019-05-23T02:32:06.566Z,83.12
2019-05-23T02:34:34.679Z,82.83
2019-05-23T02:37:03.872Z,82.45
2019-05-23T02:39:41.858Z,83.39
2019-05-23T02:42:40.422Z,83.62
2019-05-23T02:45:10.611Z,83.03
2019-05-23T02:47:44.601Z,81.63
2019-05-23T02:50:35.811Z,81.88
2019-05-23T02:53:05.229Z,83.39
2019-05-23T02:55:38.607Z,83.11
2019-05-23T02:58:38.087Z,82.51
2019-05-23T03:01:35.642Z,83.23
2019-05-23T03:04:07.472Z,83.38
2019-05-23T03:06:37.543Z,83.11
2019-05-23T03:09:06.758Z,83.06
2019-05-23T03:11:40.018Z,82.80
2019-05-23T03:14:11.190Z,82.42
2019-05-23T03:16:43.569Z,82.89
2019-05-23T03:19:22.689Z,83.33
2019-05-23T03:21:53.515Z,83.63
2019-05-23T03:24:21.614Z,83.84
2019-05-23T03:27:21.687Z,83.91
2019-05-23T03:29:51.316Z,83.44
2019-05-23T03:32:39.417Z,83.37
2019-05-23T03:35:12.942Z,81.80
2019-05-23T03:37:40.608Z,81.00
2019-05-23T03:40:10.246Z,81.38
2019-05-23T03:42:38.052Z,80.97
2019-05-23T03:45:07.449Z,80.68
2019-05-23T03:47:36.181Z,81.05
2019-05-23T03:50:05.456Z,80.94
2019-05-23T03:52:32.673Z,81.00
2019-05-23T03:55:02.065Z,81.03
2019-05-23T03:57:29.277Z,82.31
2019-05-23T03:59:58.736Z,83.43
2019-05-23T04:02:26.371Z,83.47
2019-05-23T04:04:56.130Z,82.61
2019-05-23T04:07:24.359Z,81.43
2019-05-23T04:09:52.062Z,82.85
2019-05-23T04:12:19.894Z,82.29
2019-05-23T04:14:47.601Z,81.20
2019-05-23T04:17:14.857Z,80.30
2019-05-23T04:19:42.227Z,80.25
2019-05-23T04:22:09.622Z,79.52
2019-05-23T04:24:38.321Z,79.13
2019-05-23T04:27:06.485Z,79.04
2019-05-23T04:29:34.369Z,78.94
2019-05-23T04:32:08.059Z,78.82
2019-05-23T04:34:31.159Z,78.74
2019-05-23T04:36:58.403Z,78.53
2019-05-23T04:39:25.686Z,78.31
2019-05-23T04:41:53.237Z,78.46
2019-05-23T04:44:20.460Z,79.15
2019-05-23T04:46:47.639Z,78.59
2019-05-23T04:49:14.934Z,78.52
2019-05-23T04:51:43.204Z,78.51
2019-05-23T04:54:11.532Z,77.24
2019-05-23T04:56:39.745Z,76.66
2019-05-23T04:59:07.448Z,76.67
2019-05-23T05:01:35.592Z,76.10
2019-05-23T05:04:03.881Z,76.15
2019-05-23T05:06:31.542Z,75.13
2019-05-23T05:08:59.939Z,75.16
2019-05-23T05:11:30.400Z,74.52
2019-05-23T05:13:57.427Z,74.08
2019-05-23T05:16:25.292Z,74.20
2019-05-23T05:18:55.197Z,74.91
2019-05-23T05:21:22.580Z,73.92
2019-05-23T05:23:49.837Z,74.60
2019-05-23T05:26:22.134Z,74.51
2019-05-23T05:28:50.501Z,73.70
2019-05-23T05:31:17.863Z,74.30
2019-05-23T05:33:45.115Z,74.81
2019-05-23T05:36:12.500Z,74.84
2019-05-23T05:38:40.092Z,74.78
2019-05-23T05:41:07.820Z,74.18
2019-05-23T05:43:35.966Z,73.41
2019-05-23T05:46:03.344Z,73.32
2019-05-23T05:48:31.488Z,73.96
2019-05-23T05:50:58.709Z,72.71
2019-05-23T05:53:26.016Z,73.00
2019-05-23T05:55:53.323Z,72.17
2019-05-23T05:58:20.667Z,71.69
2019-05-23T06:00:51.393Z,70.79
2019-05-23T06:03:19.062Z,69.56
2019-05-23T06:06:05.891Z,68.96
2019-05-23T06:08:35.023Z,66.71
2019-05-23T06:11:02.663Z,63.09
2019-05-23T06:13:29.891Z,59.13
2019-05-23T06:15:57.203Z,54.74
2019-05-23T06:18:24.418Z,57.33
2019-05-23T06:20:52.686Z,55.55
2019-05-23T06:23:21.290Z,52.97
2019-05-23T06:25:48.684Z,51.21
2019-05-23T06:28:16.488Z,50.65
2019-05-23T06:30:45.352Z,53.23
2019-05-23T06:33:22.427Z,53.53
2019-05-23T06:35:42.337Z,53.49
2019-05-23T06:38:10.339Z,52.85
2019-05-23T06:40:38.382Z,53.09
2019-05-23T06:43:06.418Z,52.72
2019-05-23T06:45:33.835Z,50.66
2019-05-23T06:48:01.445Z,48.97
2019-05-23T06:50:29.854Z,52.43
2019-05-23T06:52:57.274Z,55.28
2019-05-23T06:55:24.483Z,52.96
2019-05-23T06:57:52.441Z,55.31
2019-05-23T07:00:22.587Z,55.76
2019-05-23T07:02:49.810Z,55.86
2019-05-23T07:05:21.357Z,54.37
2019-05-23T07:07:48.574Z,55.54
2019-05-23T07:10:16.091Z,56.75
2019-05-23T07:12:43.801Z,55.41
2019-05-23T07:15:11.976Z,55.85
2019-05-23T07:17:39.197Z,52.25
2019-05-23T07:20:07.530Z,51.99
2019-05-23T07:22:35.116Z,52.80
2019-05-23T07:25:03.388Z,54.73
2019-05-23T07:27:31.594Z,54.00
2019-05-23T07:30:00.116Z,53.83
2019-05-23T07:32:27.807Z,56.04
2019-05-23T07:34:55.354Z,55.25
2019-05-23T07:37:22.527Z,49.88
2019-05-23T07:39:49.715Z,50.59
2019-05-23T07:42:17.242Z,49.96
2019-05-23T07:44:48.522Z,47.51
2019-05-23T07:47:16.088Z,50.27
2019-05-23T07:49:43.285Z,46.39
2019-05-23T07:52:10.479Z,46.98
2019-05-23T07:54:47.626Z,44.52
2019-05-23T07:57:15.456Z,42.47
2019-05-23T07:59:42.648Z,46.12
2019-05-23T08:02:33.778Z,44.26
2019-05-23T08:05:02.284Z,44.13
2019-05-23T08:07:32.663Z,44.63
2019-05-23T08:09:59.079Z,43.85
2019-05-23T08:12:26.618Z,41.75
2019-05-23T08:14:53.799Z,38.27
2019-05-23T08:17:21.256Z,38.92
2019-05-23T08:19:50.400Z,40.68
2019-05-23T08:22:17.843Z,42.63
2019-05-23T08:24:45.170Z,43.51
2019-05-23T08:27:12.716Z,42.39
2019-05-23T08:29:40.848Z,42.64
2019-05-23T08:32:09.364Z,43.10
2019-05-23T08:34:42.526Z,43.97
2019-05-23T08:37:07.270Z,39.78
2019-05-23T08:39:35.839Z,39.66
2019-05-23T08:42:03.784Z,44.88
2019-05-23T08:44:31.546Z,45.73
2019-05-23T08:46:58.882Z,40.30
2019-05-23T08:49:26.263Z,40.02
2019-05-23T08:51:54.140Z,38.46
2019-05-23T08:54:21.339Z,39.88
2019-05-23T08:56:48.954Z,42.31
2019-05-23T08:59:16.745Z,44.93
2019-05-23T09:01:44.847Z,45.72
2019-05-23T09:04:12.557Z,44.53
2019-05-23T09:06:41.171Z,41.90
2019-05-23T09:09:27.508Z,44.40
2019-05-23T09:11:39.810Z,41.80
2019-05-23T09:14:08.075Z,42.87
2019-05-23T09:16:36.633Z,45.07
2019-05-23T09:19:04.091Z,40.22
2019-05-23T09:21:31.551Z,42.10
2019-05-23T09:23:59.347Z,37.68
2019-05-23T09:26:26.555Z,35.73
2019-05-23T09:28:53.779Z,36.45
2019-05-23T09:31:21.861Z,36.45
2019-05-23T09:33:50.143Z,37.10
2019-05-23T09:36:17.449Z,37.51
2019-05-23T09:38:44.667Z,36.42
2019-05-23T09:41:12.285Z,38.21
2019-05-23T09:43:39.471Z,35.48
2019-05-23T09:46:06.663Z,36.28
2019-05-23T09:48:34.256Z,34.54
2019-05-23T09:51:01.575Z,36.79
2019-05-23T09:53:28.819Z,39.67
2019-05-23T09:55:56.149Z,35.21
2019-05-23T09:58:23.713Z,37.64
2019-05-23T10:00:51.026Z,36.81
2019-05-23T10:03:20.131Z,37.03
2019-05-23T10:05:47.327Z,37.33
2019-05-23T10:08:15.110Z,36.51
2019-05-23T10:10:42.724Z,35.02
2019-05-23T10:13:10.338Z,34.81
2019-05-23T10:16:03.970Z,35.37
2019-05-23T10:18:31.321Z,35.37
2019-05-23T10:20:59.044Z,34.58
2019-05-23T10:23:26.446Z,33.29
2019-05-23T10:25:53.664Z,33.04
2019-05-23T10:28:21.113Z,34.09
2019-05-23T10:30:48.418Z,34.09
2019-05-23T10:33:15.646Z,34.08
2019-05-23T10:35:58.983Z,33.18
2019-05-23T10:38:12.407Z,34.33
2019-05-23T10:40:40.526Z,33.37
2019-05-23T10:43:08.563Z,33.31
2019-05-23T10:45:36.190Z,34.47
2019-05-23T10:48:04.866Z,35.32
2019-05-23T10:50:44.335Z,35.18
2019-05-23T10:53:01.347Z,36.20
2019-05-23T10:55:29.811Z,32.22
2019-05-23T10:57:57.024Z,32.53
2019-05-23T11:00:25.562Z,37.52
2019-05-23T11:02:53.374Z,34.87
2019-05-23T11:05:21.168Z,33.95
2019-05-23T11:07:48.503Z,33.25
2019-05-23T11:10:17.703Z,33.73
2019-05-23T11:12:44.931Z,30.18
2019-05-23T11:15:13.914Z,32.66
2019-05-23T11:17:41.133Z,31.27
2019-05-23T11:20:09.844Z,31.64
2019-05-23T11:22:37.936Z,30.57
2019-05-23T11:25:07.062Z,30.74
2019-05-23T11:27:34.569Z,31.66
2019-05-23T11:30:01.896Z,31.29
2019-05-23T11:32:29.234Z,34.13
2019-05-23T11:34:56.456Z,34.03
2019-05-23T11:37:24.929Z,32.38
2019-05-23T11:39:52.771Z,32.68
2019-05-23T11:42:19.981Z,31.50
2019-05-23T11:44:47.579Z,33.41
2019-05-23T11:47:15.215Z,30.53
2019-05-23T11:49:44.370Z,29.76
2019-05-23T11:52:12.101Z,33.41
2019-05-23T11:54:39.437Z,31.15
2019-05-23T11:57:08.887Z,31.77
2019-05-23T11:59:36.094Z,31.04
2019-05-23T12:02:41.211Z,31.06
2019-05-23T12:05:15.813Z,29.81
2019-05-23T12:07:43.630Z,32.12
2019-05-23T12:10:11.147Z,29.96
2019-05-23T12:12:38.381Z,28.82
2019-05-23T12:15:11.226Z,27.65
2019-05-23T12:17:39.249Z,27.79
2019-05-23T12:20:06.857Z,28.79
2019-05-23T12:22:34.643Z,30.74
2019-05-23T12:25:20.088Z,33.20
2019-05-23T12:27:32.262Z,30.93
2019-05-23T12:29:59.637Z,29.55
2019-05-23T12:32:26.921Z,30.65
2019-05-23T12:35:09.251Z,30.17
2019-05-23T12:37:23.576Z,28.92
2019-05-23T12:39:51.491Z,30.07
2019-05-23T12:42:18.781Z,29.03
2019-05-23T12:44:46.373Z,29.10
2019-05-23T12:47:24.571Z,31.36
2019-05-23T12:49:59.794Z,30.66
2019-05-23T12:52:27.130Z,31.43
2019-05-23T12:54:54.945Z,29.82
2019-05-23T12:57:22.726Z,29.61
2019-05-23T12:59:50.752Z,28.91
2019-05-23T13:02:24.708Z,27.78
2019-05-23T13:04:52.072Z,28.78
2019-05-23T13:07:35.127Z,29.97
2019-05-23T13:09:48.510Z,30.40
2019-05-23T13:12:16.620Z,29.84
2019-05-23T13:14:44.814Z,29.50
2019-05-23T13:17:12.282Z,30.36
2019-05-23T13:19:39.473Z,29.90
2019-05-23T13:22:08.933Z,29.08
2019-05-23T13:24:51.271Z,29.88
2019-05-23T13:27:05.663Z,31.69
2019-05-23T13:29:35.817Z,30.13
2019-05-23T13:32:03.648Z,30.61
2019-05-23T13:34:30.866Z,31.47
2019-05-23T13:36:58.085Z,30.59
2019-05-23T13:39:26.070Z,29.42
2019-05-23T13:41:53.836Z,30.18
2019-05-23T13:44:32.774Z,31.32
2019-05-23T13:46:50.816Z,27.52
2019-05-23T13:49:18.302Z,31.22
2019-05-23T13:51:45.652Z,31.23
2019-05-23T13:54:12.970Z,30.96
2019-05-23T13:56:40.862Z,31.31
2019-05-23T13:59:08.130Z,32.42
2019-05-23T14:01:36.342Z,30.22
2019-05-23T14:04:04.653Z,29.19
2019-05-23T14:06:32.317Z,27.79
2019-05-23T14:08:59.566Z,30.66
2019-05-23T14:11:26.765Z,30.78
2019-05-23T14:14:00.032Z,30.13
2019-05-23T14:16:23.385Z,28.39
2019-05-23T14:18:50.985Z,28.67
2019-05-23T14:21:18.374Z,27.41
2019-05-23T14:23:46.085Z,27.55
2019-05-23T14:26:13.453Z,27.69
2019-05-23T14:28:41.110Z,29.89
2019-05-23T14:31:16.141Z,27.81
2019-05-23T14:33:53.301Z,28.18
2019-05-23T14:36:43.802Z,30.44
2019-05-23T14:39:18.668Z,29.33
2019-05-23T14:41:55.571Z,29.05
2019-05-23T14:44:22.905Z,28.19
2019-05-23T14:47:12.704Z,28.60
2019-05-23T14:49:45.115Z,29.12
2019-05-23T14:52:20.129Z,29.47
2019-05-23T14:54:52.195Z,30.63
2019-05-23T14:57:19.508Z,29.68
2019-05-23T14:59:47.070Z,29.48
2019-05-23T15:02:17.754Z,29.50
2019-05-23T15:04:45.084Z,29.11
2019-05-23T15:07:12.490Z,31.15
2019-05-23T15:09:40.186Z,31.05
2019-05-23T15:12:08.612Z,31.05
2019-05-23T15:14:35.824Z,31.18
2019-05-23T15:17:03.624Z,30.86
2019-05-23T15:19:41.684Z,30.98
2019-05-23T15:22:00.389Z,31.06
2019-05-23T15:24:28.512Z,31.06
2019-05-23T15:26:55.737Z,31.57
2019-05-23T15:29:23.325Z,31.94
2019-05-23T15:32:01.613Z,29.48
2019-05-23T15:34:19.713Z,27.73
2019-05-23T15:36:46.942Z,28.22
2019-05-23T15:39:14.874Z,28.08
2019-05-23T15:41:42.081Z,29.38
2019-05-23T15:44:23.714Z,28.66
2019-05-23T15:46:38.841Z,27.89
2019-05-23T15:49:08.078Z,30.16
2019-05-23T15:51:41.449Z,30.16
2019-05-23T15:54:15.599Z,30.15
2019-05-23T15:56:50.783Z,30.03
2019-05-23T15:59:25.694Z,30.28
2019-05-23T16:02:12.743Z,30.71
2019-05-23T16:04:41.024Z,30.04
2019-05-23T16:07:10.315Z,29.15
2019-05-23T16:09:37.778Z,29.15
2019-05-23T16:12:06.091Z,30.95
2019-05-23T16:14:33.298Z,29.21
2019-05-23T16:17:00.927Z,29.66
2019-05-23T16:19:28.235Z,31.31
2019-05-23T16:21:55.844Z,30.31
2019-05-23T16:24:23.222Z,31.75
2019-05-23T16:26:50.650Z,31.39
2019-05-23T16:29:18.957Z,30.85
2019-05-23T16:31:46.744Z,31.34
2019-05-23T16:34:13.967Z,32.87
2019-05-23T16:36:41.590Z,33.28
2019-05-23T16:39:08.859Z,33.35
2019-05-23T16:41:36.615Z,32.74
2019-05-23T16:44:04.139Z,31.81
2019-05-23T16:46:31.391Z,32.61
2019-05-23T16:48:59.250Z,33.02
2019-05-23T16:51:26.954Z,32.87
2019-05-23T16:53:54.304Z,32.08
2019-05-23T16:56:36.227Z,32.86
2019-05-23T16:59:17.714Z,33.91
2019-05-23T17:02:00.423Z,34.12
2019-05-23T17:04:32.344Z,34.40
2019-05-23T17:07:19.214Z,35.73
2019-05-23T17:10:07.628Z,35.54
2019-05-23T17:12:55.039Z,36.39
2019-05-23T17:15:41.249Z,36.38
2019-05-23T17:18:27.134Z,36.68
2019-05-23T17:21:03.602Z,36.93
2019-05-23T17:24:05.673Z,36.87
2019-05-23T17:26:43.587Z,36.77
2019-05-23T17:29:18.909Z,37.17
2019-05-23T17:31:47.961Z,38.10
2019-05-23T17:34:15.696Z,37.53
2019-05-23T17:36:43.098Z,36.61
2019-05-23T17:39:12.246Z,39.81
2019-05-23T17:41:39.466Z,38.14
2019-05-23T17:44:06.983Z,38.26
2019-05-23T17:46:34.498Z,39.83
2019-05-23T17:49:02.106Z,39.33
2019-05-23T17:51:29.416Z,39.65
2019-05-23T17:53:56.633Z,40.38
2019-05-23T17:56:24.183Z,39.01
2019-05-23T17:58:51.690Z,38.86
2019-05-23T18:01:19.781Z,42.55
2019-05-23T18:03:46.962Z,41.44
2019-05-23T18:06:14.330Z,39.56
2019-05-23T18:08:42.146Z,40.13
2019-05-23T18:11:10.079Z,39.71
2019-05-23T18:13:37.290Z,39.63
2019-05-23T18:16:04.986Z,40.63
2019-05-23T18:18:32.790Z,39.77
2019-05-23T18:21:00.263Z,39.17
2019-05-23T18:23:27.470Z,42.63
2019-05-23T18:25:54.895Z,41.28
2019-05-23T18:28:22.392Z,41.25
2019-05-23T18:30:56.941Z,39.77
2019-05-23T18:33:26.609Z,43.46
2019-05-23T18:35:55.852Z,41.10
2019-05-23T18:38:23.980Z,41.92
2019-05-23T18:41:02.321Z,43.93
2019-05-23T18:43:21.900Z,44.68
2019-05-23T18:45:51.100Z,46.16
2019-05-23T18:48:18.431Z,44.26
2019-05-23T18:50:46.088Z,46.90
2019-05-23T18:53:13.345Z,44.87
2019-05-23T18:55:40.639Z,43.70
2019-05-23T18:58:08.349Z,43.45
2019-05-23T19:00:59.354Z,42.86
2019-05-23T19:03:27.006Z,43.46
2019-05-23T19:05:55.119Z,45.43
2019-05-23T19:08:23.087Z,43.76
2019-05-23T19:10:50.483Z,44.83
2019-05-23T19:13:17.647Z,46.16
2019-05-23T19:15:45.160Z,45.67
2019-05-23T19:18:12.687Z,45.95
2019-05-23T19:20:40.946Z,45.98
2019-05-23T19:23:08.984Z,46.28
2019-05-23T19:25:36.983Z,47.15
2019-05-23T19:28:04.440Z,47.16
2019-05-23T19:30:31.701Z,47.59
2019-05-23T19:32:59.246Z,48.32
2019-05-23T19:35:27.040Z,48.00
2019-05-23T19:37:54.271Z,48.83
2019-05-23T19:40:21.531Z,48.57
2019-05-23T19:42:49.540Z,49.98
2019-05-23T19:45:16.907Z,49.20
2019-05-23T19:47:44.112Z,48.61
2019-05-23T19:50:11.846Z,50.95
2019-05-23T19:52:40.008Z,50.43
2019-05-23T19:55:07.293Z,50.63
2019-05-23T19:57:35.566Z,51.36
2019-05-23T20:00:05.985Z,50.77
2019-05-23T20:02:41.601Z,54.28
2019-05-23T20:05:17.456Z,54.37
2019-05-23T20:07:44.946Z,53.95
2019-05-23T20:10:14.826Z,52.97
2019-05-23T20:12:42.413Z,53.57
2019-05-23T20:15:10.048Z,52.94
2019-05-23T20:17:37.279Z,52.95
2019-05-23T20:20:04.628Z,53.57
2019-05-23T20:22:31.933Z,54.58
2019-05-23T20:24:59.144Z,54.39
2019-05-23T20:27:26.361Z,55.06
2019-05-23T20:29:53.555Z,54.46
2019-05-23T20:32:21.579Z,55.00
2019-05-23T20:34:48.787Z,54.90
2019-05-23T20:37:16.197Z,54.98
2019-05-23T20:39:43.640Z,55.75
2019-05-23T20:42:12.193Z,58.61
2019-05-23T20:44:39.762Z,58.73
2019-05-23T20:47:07.753Z,56.69
2019-05-23T20:49:35.340Z,55.18
2019-05-23T20:52:02.564Z,54.75
2019-05-23T20:54:33.332Z,55.25
2019-05-23T20:56:59.105Z,54.82
2019-05-23T20:59:29.021Z,54.81
2019-05-23T21:01:56.282Z,54.90
2019-05-23T21:04:23.470Z,55.30
2019-05-23T21:06:51.502Z,56.13
2019-05-23T21:09:19.156Z,54.66
2019-05-23T21:11:46.381Z,54.97
2019-05-23T21:14:13.563Z,58.04
2019-05-23T21:16:40.764Z,57.81
2019-05-23T21:19:08.389Z,56.93
2019-05-23T21:21:35.749Z,57.47
2019-05-23T21:24:03.141Z,59.42
2019-05-23T21:26:30.430Z,58.22
2019-05-23T21:28:58.081Z,57.75
2019-05-23T21:31:25.609Z,57.55
2019-05-23T21:33:52.808Z,56.68
2019-05-23T21:36:20.474Z,56.14
2019-05-23T21:38:47.680Z,56.42
2019-05-23T21:41:15.672Z,57.50
2019-05-23T21:43:43.693Z,58.84
2019-05-23T21:46:11.408Z,58.42
2019-05-23T21:48:38.630Z,58.38
2019-05-23T21:51:06.032Z,58.54
2019-05-23T21:53:33.257Z,59.29
2019-05-23T21:56:00.953Z,58.76
2019-05-23T21:58:28.177Z,58.92
2019-05-23T22:01:27.406Z,58.87
2019-05-23T22:04:14.499Z,59.03
2019-05-23T22:06:45.565Z,58.73
2019-05-23T22:09:13.260Z,58.66
2019-05-23T22:11:40.588Z,59.51
2019-05-23T22:14:08.249Z,59.37
2019-05-23T22:16:36.195Z,60.04
2019-05-23T22:19:05.613Z,60.08
2019-05-23T22:21:32.931Z,60.77
2019-05-23T22:24:00.732Z,62.69
2019-05-23T22:26:28.141Z,61.65
2019-05-23T22:28:55.854Z,61.16
2019-05-23T22:31:23.559Z,61.81
2019-05-23T22:33:57.526Z,62.70
2019-05-23T22:36:24.827Z,62.52
2019-05-23T22:38:52.779Z,61.66
2019-05-23T22:41:20.042Z,61.90
2019-05-23T22:43:47.713Z,61.22
2019-05-23T22:46:15.437Z,60.96
2019-05-23T22:48:43.055Z,60.75
2019-05-23T22:51:10.268Z,61.07
2019-05-23T22:53:37.479Z,61.18
2019-05-23T22:56:05.158Z,61.40
2019-05-23T22:58:32.693Z,62.35
2019-05-23T23:00:59.976Z,63.75
2019-05-23T23:03:27.427Z,65.43
2019-05-23T23:05:54.666Z,64.80
2019-05-23T23:08:23.418Z,64.55
2019-05-23T23:10:50.679Z,62.89
2019-05-23T23:13:17.870Z,62.97
2019-05-23T23:15:45.140Z,63.84
2019-05-23T23:18:12.773Z,62.83
2019-05-23T23:20:39.966Z,63.15
2019-05-23T23:23:07.222Z,63.44
2019-05-23T23:25:34.436Z,63.00
2019-05-23T23:28:01.969Z,63.76
2019-05-23T23:30:32.721Z,63.69
2019-05-23T23:32:59.925Z,63.09
2019-05-23T23:35:27.117Z,62.50
2019-05-23T23:37:54.329Z,62.85
2019-05-23T23:40:21.560Z,63.50
2019-05-23T23:42:48.779Z,65.10
2019-05-23T23:45:35.077Z,63.81
2019-05-23T23:48:20.702Z,63.61
2019-05-23T23:51:06.907Z,63.20
2019-05-23T23:53:52.472Z,64.33
2019-05-23T23:56:38.854Z,66.24
2019-05-23T23:59:05.730Z,66.20
